Latest Weather Observations for Central Arnhem Plateau

IDD60801

Issued at 9:31 pm CST Saturday 30 May 2015 (issued every 30 minutes, with the page automatically refreshed every 10 minutes)

About weather observations | Map of weather stations | Latest weather observations for NT | Other Formats
Station Details ID: 014909 Name: CENTRAL ARNHEM PLATEAU Lat: -13.33 Lon: 133.09 Height: 416.0 m
Data from the previous 72 hours. | See also: Recent months for locations in Northern Territory
Date/Time
CST
Temp
°C
App
Temp
°C
Dew
Point
Rel
Hum
%
Delta-T
°C
Wind Press
QNH
hPa
Press
MSL
hPa
Rain
since 9 am
mm
Dir
 
Spd
km/h
Gust
km/h
Spd
kts
Gust
kts
30/09:30pm 22.7 23.3 20.2 86 1.6 E 17 24 9 13 1017.2 1014.7 0.2
30/09:00pm 22.6 23.9 20.1 86 1.6 ESE 13 19 7 10 1017.0 1014.5 0.2
30/08:30pm 22.4 24.0 19.9 86 1.6 ENE 11 15 6 8 1016.6 1014.1 0.2
30/08:00pm 22.7 24.3 20.0 85 1.8 ENE 11 15 6 8 1016.7 1014.2 0.0
30/07:30pm 22.8 24.0 20.0 84 1.8 ENE 13 17 7 9 1016.2 1013.8 0.0
30/07:00pm 22.7 23.7 19.5 82 2.1 NE 13 17 7 9 1015.8 1013.4 0.0
30/06:30pm 23.0 23.9 19.2 79 2.5 E 13 17 7 9 1015.1 1012.7 0.0
30/06:00pm 23.2 23.9 18.9 77 2.8 ENE 13 17 7 9 1014.5 1012.0 0.0
30/05:30pm 23.9 24.1 20.2 80 2.4 ENE 19 26 10 14 1014.3 1011.8 0.0
30/05:00pm 24.8 24.8 19.8 74 3.3 E 19 26 10 14 1014.0 1011.5 0.0
30/04:30pm 26.1 26.4 19.7 68 4.2 E 17 26 9 14 1013.5 1011.1 0.0
30/04:00pm 26.1 26.2 19.2 65 4.5 E 17 24 9 13 1013.4 1011.0 0.0
30/03:30pm 26.2 26.3 19.1 65 4.6 E 17 24 9 13 1013.5 1011.1 0.0
30/03:00pm 26.5 26.2 19.1 64 4.8 E 19 26 10 14 1013.5 1011.1 0.0
30/02:30pm 25.6 26.6 20.2 72 3.6 E 15 20 8 11 1013.9 1011.4 0.0
30/02:00pm 24.6 24.8 20.5 78 2.7 ENE 20 32 11 17 1014.2 1011.7 0.0
30/01:30pm 28.1 26.7 17.9 54 6.6 E 22 32 12 17 1013.9 1011.4 0.0
30/01:00pm 28.8 27.9 17.7 51 7.2 E 19 28 10 15 1014.1 1011.6 0.0
30/12:30pm 28.7 27.3 17.9 52 7.0 E 22 30 12 16 1014.5 1012.0 0.0
30/12:00pm 28.2 26.1 17.1 51 7.1 ESE 24 32 13 17 1015.1 1012.7 0.0
30/11:30am 28.3 26.3 17.5 52 6.9 ESE 24 33 13 18 1015.5 1013.1 0.0
30/11:00am 28.4 26.7 18.2 54 6.6 E 24 32 13 17 1015.9 1013.5 0.0
30/10:30am 27.1 25.3 17.8 56 6.0 E 24 37 13 20 1016.3 1013.9 0.0
30/10:00am 26.9 24.6 17.7 57 5.9 ENE 26 39 14 21 1016.7 1014.2 0.0
30/09:30am 26.7 24.6 18.0 59 5.6 E 26 37 14 20 1016.7 1014.2 0.0
30/09:00am 25.9 25.2 18.6 64 4.7 E 20 28 11 15 1016.7 1014.2 -
30/08:30am 24.5 23.7 18.4 69 3.9 E 20 28 11 15 1016.6 1014.1 -
30/08:00am 23.6 24.3 18.9 75 3.0 E 13 20 7 11 1016.5 1014.0 -
30/07:30am 22.5 23.9 18.7 79 2.4 E 9 15 5 8 1016.1 1013.7 -
30/07:00am 22.0 23.0 18.6 81 2.2 ESE 11 15 6 8 1015.5 1013.1 -
30/06:30am 22.3 23.3 18.7 80 2.3 SE 11 15 6 8 1015.4 1013.0 -
30/06:00am 22.6 23.3 18.8 79 2.4 ESE 13 17 7 9 1015.1 1012.7 -
30/05:30am 22.5 23.1 18.7 79 2.4 ESE 13 19 7 10 1015.0 1012.5 -
30/05:00am 22.5 23.1 18.7 79 2.4 ESE 13 17 7 9 1015.0 1012.5 -
30/04:30am 22.6 23.2 18.6 78 2.6 ESE 13 20 7 11 1015.0 1012.5 -
30/04:00am 22.7 22.9 18.5 77 2.7 ESE 15 19 8 10 1015.0 1012.5 -
30/03:30am 22.9 23.4 18.4 76 2.9 SE 13 19 7 10 1014.9 1012.4 -
30/03:00am 23.1 23.3 18.6 76 2.9 SE 15 20 8 11 1015.2 1012.8 -
30/02:30am 23.4 23.5 18.3 73 3.3 SE 15 19 8 10 1015.4 1013.0 -
30/02:00am 23.7 24.1 18.1 71 3.6 SE 13 20 7 11 1015.6 1013.2 -
30/01:30am 24.0 24.4 18.2 70 3.7 ESE 13 20 7 11 1015.8 1013.4 -
30/01:00am 24.2 23.3 17.7 67 4.1 ESE 19 28 10 15 1015.8 1013.4 -
30/12:30am 24.5 23.9 17.5 65 4.4 ESE 17 24 9 13 1016.2 1013.8 -
30/12:00am 24.7 24.3 17.2 63 4.7 ESE 15 20 8 11 1016.5 1014.0 -
 
Date/Time
CST
Temp
°C
App
Temp
°C
Dew
Point
Rel
Hum
%
Delta-T
°C
Wind Press
QNH
hPa
Press
MSL
hPa
Rain
since 9 am
mm
Dir
 
Spd
km/h
Gust
km/h
Spd
kts
Gust
kts
29/11:30pm 25.0 24.2 17.2 62 4.9 ESE 17 22 9 12 1016.9 1014.4 -
29/11:00pm 24.9 24.5 17.1 62 4.9 E 15 19 8 10 1017.1 1014.6 -
29/10:30pm 25.0 24.7 16.4 59 5.4 E 13 17 7 9 1017.1 1014.6 -
29/10:00pm 25.2 24.9 15.5 55 6.0 ESE 11 15 6 8 1017.2 1014.7 -
29/09:30pm 25.5 25.5 15.2 53 6.3 ESE 9 13 5 7 1016.5 1014.0 -
29/09:00pm 25.9 25.4 15.0 51 6.7 ESE 11 15 6 8 1016.3 1013.9 0.0
29/08:30pm 26.4 25.5 14.8 49 7.1 ESE 13 17 7 9 1016.2 1013.8 0.0
29/08:00pm 26.4 26.1 14.5 48 7.2 ESE 9 13 5 7 1016.1 1013.7 0.0
29/07:30pm 26.5 26.2 14.3 47 7.4 ESE 9 11 5 6 1015.9 1013.5 0.0
29/07:00pm 27.0 26.2 14.1 45 7.8 E 11 15 6 8 1015.6 1013.2 0.0
29/06:30pm 27.4 25.7 13.7 43 8.3 ESE 15 22 8 12 1015.1 1012.7 0.0
29/06:00pm 28.0 26.5 14.3 43 8.4 ESE 15 22 8 12 1014.9 1012.4 0.0
29/05:30pm 28.7 27.1 14.9 43 8.5 E 17 24 9 13 1014.4 1011.9 0.0
29/05:00pm 29.1 27.1 14.9 42 8.8 E 19 26 10 14 1014.1 1011.6 0.0
29/04:30pm 29.5 27.6 15.2 41 8.9 ESE 19 28 10 15 1014.0 1011.5 0.0
29/04:00pm 30.1 27.7 15.4 41 9.2 E 22 32 12 17 1013.7 1011.3 0.0
29/03:30pm 29.4 26.7 15.5 43 8.7 E 24 33 13 18 1013.6 1011.2 0.0
29/03:00pm 29.5 27.0 15.2 41 8.9 E 22 30 12 16 1014.0 1011.5 0.0
29/02:30pm 29.7 26.9 15.4 42 8.9 ESE 24 33 13 18 1014.5 1012.0 0.0
29/02:00pm 29.5 26.8 15.6 43 8.7 E 24 37 13 20 1014.9 1012.4 0.0
29/01:30pm 29.7 27.8 15.8 43 8.7 E 20 28 11 15 1015.2 1012.8 0.0
29/01:00pm 29.9 27.9 15.6 42 9.0 E 20 28 11 15 1015.6 1013.2 0.0
29/12:30pm 28.8 25.9 15.0 43 8.5 E 24 32 13 17 1016.0 1013.6 0.0
29/12:00pm 28.6 24.8 14.8 43 8.5 E 28 41 15 22 1016.6 1014.1 0.0
29/11:30am 29.7 26.9 15.4 42 8.9 E 24 33 13 18 1016.7 1014.2 0.0
29/11:00am 28.8 25.5 16.0 45 8.0 E 28 39 15 21 1017.1 1014.6 0.0
29/10:30am 28.1 25.0 15.7 46 7.7 E 26 44 14 24 1017.3 1014.9 0.0
29/10:00am 27.4 23.2 15.7 48 7.3 E 32 44 17 24 1017.2 1014.7 0.0
29/09:30am 26.9 24.7 15.9 51 6.8 ESE 22 32 12 17 1017.4 1015.0 0.0
29/09:00am 25.4 23.7 15.7 55 6.0 ESE 19 24 10 13 1017.2 1014.7 0.0
29/08:30am 23.8 22.4 15.6 60 5.0 ESE 17 24 9 13 1017.0 1014.5 0.0
29/08:00am 23.0 22.2 16.1 65 4.3 ESE 15 19 8 10 1016.7 1014.2 0.0
29/07:30am 21.6 21.2 16.3 72 3.3 ESE 13 17 7 9 1016.0 1013.6 0.0
29/07:00am 20.6 21.0 16.4 77 2.6 ESE 9 13 5 7 1015.5 1013.1 0.0
29/06:30am 20.8 20.9 16.6 77 2.6 ESE 11 15 6 8 1015.4 1013.0 0.0
29/06:00am 21.2 21.0 16.6 75 2.8 ESE 13 17 7 9 1015.3 1012.9 0.0
29/05:30am 21.4 20.9 17.0 76 2.7 ESE 15 19 8 10 1015.0 1012.5 0.0
29/05:00am 21.7 21.3 17.1 75 2.9 ESE 15 20 8 11 1015.1 1012.7 0.0
29/04:30am 22.1 21.3 17.2 74 3.1 ESE 17 24 9 13 1015.1 1012.7 0.0
29/04:00am 22.1 21.1 17.5 75 2.9 ESE 19 26 10 14 1015.3 1012.9 0.0
29/03:30am 22.0 21.7 17.4 75 2.9 ESE 15 20 8 11 1015.3 1012.9 0.0
29/03:00am 21.7 22.0 17.1 75 2.9 ESE 11 15 6 8 1015.6 1013.2 0.0
29/02:30am 21.7 22.4 17.1 75 2.9 ESE 9 13 5 7 1015.7 1013.3 0.0
29/02:00am 21.7 22.4 17.1 75 2.9 ESE 9 13 5 7 1015.7 1013.3 0.0
29/01:30am 22.1 22.4 17.0 73 3.2 ESE 11 15 6 8 1015.9 1013.5 0.0
29/01:00am 22.7 23.0 16.9 70 3.6 ESE 11 15 6 8 1016.1 1013.7 0.0
29/12:30am 23.2 23.1 17.0 68 3.9 ESE 13 19 7 10 1016.1 1013.7 0.0
29/12:00am 23.6 22.7 16.9 66 4.2 ESE 17 28 9 15 1016.2 1013.8 0.0
 
Date/Time
CST
Temp
°C
App
Temp
°C
Dew
Point
Rel
Hum
%
Delta-T
°C
Wind Press
QNH
hPa
Press
MSL
hPa
Rain
since 9 am
mm
Dir
 
Spd
km/h
Gust
km/h
Spd
kts
Gust
kts
28/11:30pm 23.2 22.9 16.5 66 4.2 E 13 20 7 11 1016.3 1013.9 0.0
28/11:00pm 23.7 23.1 15.7 61 4.9 ESE 13 20 7 11 1016.2 1013.8 0.0
28/10:30pm 22.7 23.4 15.5 64 4.4 ESE 6 7 3 4 1016.5 1014.0 0.0
28/10:00pm 22.2 22.3 13.8 59 5.0 E 6 9 3 5 1016.3 1013.9 0.0
28/09:30pm 24.6 24.8 14.7 54 6.0 SE 7 11 4 6 1016.1 1013.7 0.0
28/09:00pm 25.4 25.6 14.8 52 6.5 SE 7 9 4 5 1016.0 1013.6 0.0
28/08:30pm 25.8 26.0 14.6 50 6.8 SE 7 9 4 5 1015.8 1013.4 0.0
28/08:00pm 26.2 27.2 14.3 48 7.2 SSE 2 7 1 4 1015.6 1013.2 0.0
28/07:30pm 26.5 26.0 13.9 45 7.6 SE 9 11 5 6 1015.1 1012.7 0.0
28/07:00pm 27.0 26.8 13.7 44 8.0 SE 7 11 4 6 1014.9 1012.4 0.0
28/06:30pm 27.6 26.5 13.2 41 8.6 ESE 11 15 6 8 1014.8 1012.3 0.0
28/06:00pm 28.6 27.0 12.9 38 9.4 E 13 19 7 10 1014.6 1012.1 0.0
28/05:30pm 29.2 26.8 12.6 36 9.9 E 17 22 9 12 1014.4 1011.9 0.0
28/05:00pm 29.6 27.2 12.5 35 10.2 E 17 26 9 14 1014.1 1011.6 0.0
28/04:30pm 29.8 27.4 12.7 35 10.3 E 17 24 9 13 1013.9 1011.4 0.0
28/04:00pm 30.0 27.5 12.4 34 10.5 E 17 26 9 14 1013.7 1011.3 0.0
28/03:30pm 29.9 27.0 12.3 33 10.5 ENE 19 26 10 14 1013.9 1011.4 0.0
28/03:00pm 30.0 26.8 12.0 33 10.7 ENE 20 30 11 16 1014.1 1011.6 0.0
28/02:30pm 29.7 27.0 11.7 33 10.6 E 17 28 9 15 1014.5 1012.0 0.0
28/02:00pm 29.7 26.6 12.2 34 10.4 E 20 30 11 16 1014.7 1012.2 0.0
28/01:30pm 29.6 26.5 11.6 33 10.6 E 19 28 10 15 1015.2 1012.8 0.0
28/01:00pm 29.1 26.5 12.1 35 10.1 E 17 32 9 17 1015.5 1013.1 0.0
28/12:30pm 28.4 25.5 12.3 37 9.5 E 19 28 10 15 1016.0 1013.6 0.0
28/12:00pm 28.4 24.7 11.5 35 9.9 E 22 32 12 17 1016.3 1013.9 0.0
28/11:30am 28.1 24.3 11.2 35 9.8 E 22 30 12 16 1016.7 1014.2 0.0
28/11:00am 27.6 23.2 10.3 34 9.9 E 24 33 13 18 1016.9 1014.4 0.0
28/10:30am 27.0 22.8 11.1 37 9.2 E 24 33 13 18 1016.9 1014.4 0.0
28/10:00am 25.9 21.6 12.0 42 8.1 E 26 35 14 19 1017.0 1014.5 0.0
28/09:30am 24.8 22.9 15.1 54 5.9 ESE 19 26 10 14 1016.9 1014.4 0.0
28/09:00am 23.2 22.5 16.5 66 4.2 ESE 15 20 8 11 1016.8 1014.3 0.0
28/08:30am 21.3 20.9 17.1 77 2.6 SE 15 20 8 11 1016.6 1014.1 0.0
28/08:00am 20.1 20.4 16.9 82 2.0 ESE 11 15 6 8 1016.5 1014.0 0.0
28/07:30am 20.0 20.8 17.2 84 1.7 SE 9 13 5 7 1016.0 1013.6 0.0
28/07:00am 19.5 19.8 16.9 85 1.6 SE 11 13 6 7 1015.6 1013.2 0.0
28/06:30am 19.6 19.8 16.8 84 1.7 SE 11 13 6 7 1015.4 1013.0 0.0
28/06:00am 19.7 20.2 16.5 82 2.0 ESE 9 13 5 7 1015.1 1012.7 0.0
28/05:30am 19.8 20.2 16.4 81 2.1 ESE 9 11 5 6 1015.0 1012.5 0.0
28/05:00am 20.0 20.4 16.4 80 2.2 SE 9 11 5 6 1014.9 1012.4 0.0
28/04:30am 20.2 20.6 16.4 79 2.3 SE 9 11 5 6 1014.8 1012.3 0.0
28/04:00am 20.6 21.4 16.4 77 2.6 ESE 7 11 4 6 1014.6 1012.1 0.0
28/03:30am 21.1 21.3 16.7 76 2.7 ESE 11 13 6 7 1014.7 1012.2 0.0
28/03:00am 21.4 22.0 16.8 75 2.9 E 9 11 5 6 1014.8 1012.3 0.0
28/02:30am 20.7 20.8 14.4 67 3.7 E 7 9 4 5 1015.1 1012.7 0.0
28/02:00am 22.4 22.4 15.3 64 4.3 E 9 13 5 7 1015.5 1013.1 0.0
28/01:30am 22.7 22.0 14.3 59 5.0 E 11 15 6 8 1015.8 1013.4 0.0
28/01:00am 23.1 22.2 13.8 55 5.5 E 11 13 6 7 1016.0 1013.6 0.0
28/12:30am 23.1 22.9 13.6 55 5.6 E 7 9 4 5 1016.1 1013.7 0.0
28/12:00am 23.3 22.7 13.5 54 5.8 ESE 9 13 5 7 1016.3 1013.9 0.0
 
Date/Time
CST
Temp
°C
App
Temp
°C
Dew
Point
Rel
Hum
%
Delta-T
°C
Wind Press
QNH
hPa
Press
MSL
hPa
Rain
since 9 am
mm
Dir
 
Spd
km/h
Gust
km/h
Spd
kts
Gust
kts
27/11:30pm 23.3 22.3 13.5 54 5.8 ESE 11 15 6 8 1016.3 1013.9 0.0
27/11:00pm 23.3 22.9 14.0 56 5.5 ESE 9 13 5 7 1016.3 1013.9 0.0
27/10:30pm 24.1 23.0 14.2 54 5.9 SE 13 17 7 9 1016.0 1013.6 0.0
27/10:00pm 24.2 24.1 14.9 56 5.7 SE 9 13 5 7 1016.1 1013.7 0.0

Other Formats:

Comma delimited format used in spreadsheet applications
http://www.bom.gov.au/fwo/IDD60801/IDD60801.94141.axf

JavaScript Object Notation format (JSON) in row-major order
http://www.bom.gov.au/fwo/IDD60801/IDD60801.94141.json